createdAt,value
2023-05-12T00:01:20.039Z,101903.19
2023-05-12T00:04:22.128Z,101897.63
2023-05-12T00:07:24.193Z,101898.09
2023-05-12T00:10:27.650Z,101898.09
2023-05-12T00:13:30.096Z,101904.91
2023-05-12T00:16:32.382Z,101901.16
2023-05-12T00:19:35.909Z,101894.38
2023-05-12T00:22:39.321Z,101904.22
2023-05-12T00:25:41.375Z,101905.41
2023-05-12T00:28:43.375Z,101907.09
2023-05-12T00:31:45.448Z,101896.75
2023-05-12T00:34:47.693Z,101907.28
2023-05-12T00:37:49.603Z,101903.53
2023-05-12T00:40:51.785Z,101911.16
2023-05-12T00:43:53.927Z,101910.13
2023-05-12T00:46:56.301Z,101909.16
2023-05-12T00:49:59.218Z,101909.81
2023-05-12T00:53:02.161Z,101905.22
2023-05-12T00:56:05.136Z,101904.22
2023-05-12T00:59:07.429Z,101901.66
2023-05-12T01:02:10.606Z,101903.53
2023-05-12T01:05:14.009Z,101902.50
2023-05-12T01:08:17.682Z,101904.38
2023-05-12T01:11:20.344Z,101900.31
2023-05-12T01:14:22.333Z,101905.22
2023-05-12T01:17:35.921Z,101907.09
2023-05-12T01:20:39.768Z,101905.72
2023-05-12T01:23:46.813Z,101912.34
2023-05-12T01:26:49.057Z,101917.25
2023-05-12T01:29:53.003Z,101907.94
2023-05-12T01:32:55.686Z,101913.69
2023-05-12T01:35:57.739Z,101910.16
2023-05-12T01:39:00.290Z,101907.63
2023-05-12T01:42:03.440Z,101913.38
2023-05-12T01:45:05.863Z,101900.47
2023-05-12T01:48:08.180Z,101902.69
2023-05-12T01:51:11.028Z,101904.22
2023-05-12T01:54:13.324Z,101902.69
2023-05-12T01:57:15.851Z,101913.38
2023-05-12T02:00:18.619Z,101909.13
2023-05-12T02:03:23.369Z,101895.56
2023-05-12T02:06:28.673Z,101904.69
2023-05-12T02:09:31.698Z,101896.06
2023-05-12T02:12:36.547Z,101904.19
2023-05-12T02:15:38.917Z,101898.41
2023-05-12T02:18:41.164Z,101897.06
2023-05-12T02:21:46.162Z,101903.84
2023-05-12T02:24:48.212Z,101905.56
2023-05-12T02:27:51.678Z,101909.13
2023-05-12T02:30:54.779Z,101902.00
2023-05-12T02:33:57.266Z,101907.44
2023-05-12T02:36:59.431Z,101906.59
2023-05-12T02:40:01.738Z,101907.94
2023-05-12T02:43:04.274Z,101897.94
2023-05-12T02:46:06.501Z,101908.09
2023-05-12T02:49:08.764Z,101906.38
2023-05-12T02:52:10.805Z,101896.34
2023-05-12T02:55:12.900Z,101910.59
2023-05-12T02:58:15.076Z,101902.16
2023-05-12T03:01:17.182Z,101910.28
2023-05-12T03:04:19.284Z,101919.75
2023-05-12T03:07:21.763Z,101908.56
2023-05-12T03:10:24.030Z,101914.84
2023-05-12T03:13:26.064Z,101911.25
2023-05-12T03:16:28.272Z,101921.81
2023-05-12T03:19:30.713Z,101915.53
2023-05-12T03:22:33.061Z,101917.59
2023-05-12T03:25:35.245Z,101925.84
2023-05-12T03:28:37.809Z,101923.50
2023-05-12T03:31:39.914Z,101923.84
2023-05-12T03:34:41.971Z,101934.38
2023-05-12T03:37:47.882Z,101927.38
2023-05-12T03:40:52.942Z,101928.94
2023-05-12T03:43:55.892Z,101929.81
2023-05-12T03:46:58.197Z,101940.22
2023-05-12T03:50:01.619Z,101933.69
2023-05-12T03:53:04.696Z,101937.31
2023-05-12T03:56:07.229Z,101935.41
2023-05-12T03:59:12.388Z,101927.13
2023-05-12T04:02:15.221Z,101935.50
2023-05-12T04:05:19.645Z,101942.19
2023-05-12T04:08:21.858Z,101939.09
2023-05-12T04:11:24.006Z,101941.38
2023-05-12T04:14:35.184Z,101938.63
2023-05-12T04:17:44.212Z,101944.63
2023-05-12T04:20:48.178Z,101938.66
2023-05-12T04:23:54.025Z,101940.53
2023-05-12T04:26:59.676Z,101943.66
2023-05-12T04:30:01.871Z,101947.16
2023-05-12T04:33:10.202Z,101945.34
2023-05-12T04:36:15.758Z,101950.78
2023-05-12T04:39:18.853Z,101948.19
2023-05-12T04:42:21.067Z,101946.94
2023-05-12T04:45:23.429Z,101945.00
2023-05-12T04:48:29.330Z,101954.69
2023-05-12T04:51:32.317Z,101951.78
2023-05-12T04:54:34.976Z,101945.13
2023-05-12T04:57:47.235Z,101947.00
2023-05-12T05:00:49.457Z,101961.94
2023-05-12T05:03:52.495Z,101954.34
2023-05-12T05:06:55.815Z,101947.72
2023-05-12T05:09:58.804Z,101953.97
2023-05-12T05:13:01.684Z,101958.66
2023-05-12T05:16:04.990Z,101958.66
2023-05-12T05:19:15.927Z,101955.09
2023-05-12T05:22:22.934Z,101962.38
2023-05-12T05:25:26.626Z,101962.56
2023-05-12T05:28:31.073Z,101957.28
2023-05-12T05:31:33.377Z,101963.13
2023-05-12T05:34:35.767Z,101962.44
2023-05-12T05:37:39.075Z,101975.75
2023-05-12T05:40:52.366Z,101961.66
2023-05-12T05:43:56.178Z,101977.44
2023-05-12T05:46:58.744Z,101975.56
2023-05-12T05:50:02.297Z,101976.59
2023-05-12T05:53:09.170Z,101982.94
2023-05-12T05:56:12.774Z,101974.56
2023-05-12T05:59:14.795Z,101970.09
2023-05-12T06:02:18.037Z,101974.50
2023-05-12T06:05:22.326Z,101988.09
2023-05-12T06:08:26.511Z,101991.66
2023-05-12T06:11:29.654Z,101978.22
2023-05-12T06:14:31.747Z,101985.72
2023-05-12T06:17:39.870Z,101987.53
2023-05-12T06:20:43.577Z,101989.56
2023-05-12T06:23:45.603Z,101982.09
2023-05-12T06:26:48.562Z,101988.88
2023-05-12T06:29:52.198Z,101983.91
2023-05-12T06:32:54.734Z,101986.31
2023-05-12T06:36:03.725Z,101982.25
2023-05-12T06:39:08.426Z,101978.03
2023-05-12T06:42:11.843Z,101979.38
2023-05-12T06:45:18.893Z,101976.94
2023-05-12T06:48:22.202Z,101977.94
2023-05-12T06:51:25.324Z,101983.22
2023-05-12T06:54:29.928Z,101985.28
2023-05-12T06:57:34.803Z,101982.06
2023-05-12T07:00:39.036Z,101984.63
2023-05-12T07:03:41.531Z,101986.31
2023-05-12T07:08:01.340Z,101993.13
2023-05-12T07:11:05.155Z,101987.16
2023-05-12T07:14:07.278Z,101984.56
2023-05-12T07:17:09.369Z,101985.09
2023-05-12T07:20:13.263Z,101986.78
2023-05-12T07:23:16.905Z,101984.06
2023-05-12T07:26:19.452Z,101983.84
2023-05-12T07:29:22.633Z,101987.31
2023-05-12T07:32:27.925Z,101978.78
2023-05-12T07:35:31.429Z,101976.19
2023-05-12T07:38:33.488Z,101981.75
2023-05-12T07:41:35.779Z,101984.94
2023-05-12T07:44:39.139Z,101978.66
2023-05-12T07:47:41.345Z,101984.66
2023-05-12T07:50:43.312Z,101973.72
2023-05-12T07:53:45.464Z,101970.88
2023-05-12T07:56:47.540Z,101977.97
2023-05-12T07:59:49.737Z,101974.09
2023-05-12T08:02:52.186Z,101975.50
2023-05-12T08:05:54.645Z,101968.72
2023-05-12T08:08:58.475Z,101980.28
2023-05-12T08:12:01.575Z,101974.00
2023-05-12T08:15:04.021Z,101976.91
2023-05-12T08:18:06.135Z,101973.72
2023-05-12T08:21:08.268Z,101981.69
2023-05-12T08:24:10.326Z,101979.16
2023-05-12T08:27:12.841Z,101985.44
2023-05-12T08:30:16.063Z,101974.25
2023-05-12T08:33:18.069Z,101977.38
2023-05-12T08:36:20.300Z,101981.06
2023-05-12T08:39:22.629Z,101981.63
2023-05-12T08:42:40.363Z,101980.84
2023-05-12T08:45:42.947Z,101980.34
2023-05-12T08:48:50.948Z,101968.19
2023-05-12T08:51:58.171Z,101978.81
2023-05-12T08:55:07.187Z,101975.34
2023-05-12T09:02:18.749Z,101967.16
2023-05-12T09:05:21.207Z,101967.53
2023-05-12T09:08:26.023Z,101965.00
2023-05-12T09:11:34.481Z,101976.38
2023-05-12T09:14:39.647Z,101968.56
2023-05-12T09:17:45.273Z,101966.81
2023-05-12T09:20:47.566Z,101971.22
2023-05-12T09:24:06.573Z,101970.84
2023-05-12T09:27:08.865Z,101966.50
2023-05-12T09:30:12.250Z,101961.91
2023-05-12T09:33:14.660Z,101954.28
2023-05-12T09:36:22.515Z,101957.47
2023-05-12T09:42:46.730Z,101956.63
2023-05-12T09:46:02.889Z,101948.47
2023-05-12T09:49:11.572Z,101946.78
2023-05-12T09:52:17.035Z,101932.47
2023-05-12T09:55:21.687Z,101939.22
2023-05-12T09:58:27.198Z,101952.97
2023-05-12T10:01:35.596Z,101953.44
2023-05-12T10:08:14.269Z,101943.66
2023-05-12T10:11:23.792Z,101944.94
2023-05-12T10:14:26.334Z,101927.75
2023-05-12T10:17:32.223Z,101931.41
2023-05-12T10:20:36.620Z,101931.47
2023-05-12T10:24:07.046Z,101931.72
2023-05-12T10:27:10.273Z,101929.38
2023-05-12T10:30:16.839Z,101927.03
2023-05-12T10:33:25.529Z,101923.09
2023-05-12T10:36:50.543Z,101928.91
2023-05-12T11:05:15.948Z,101921.97
2023-05-12T11:08:19.829Z,101920.28
2023-05-12T11:11:25.219Z,101917.84
2023-05-12T11:14:28.384Z,101913.22
2023-05-12T11:17:39.852Z,101924.56
2023-05-12T11:20:49.794Z,101916.34
2023-05-12T11:23:57.073Z,101919.41
2023-05-12T11:27:25.087Z,101923.38
2023-05-12T11:31:26.492Z,101921.59
2023-05-12T11:34:50.112Z,101914.09
2023-05-12T11:37:52.083Z,101910.41
2023-05-12T11:41:41.245Z,101916.22
2023-05-12T11:44:53.182Z,101903.41
2023-05-12T11:56:10.029Z,101909.56
2023-05-12T11:59:38.760Z,101908.66
2023-05-12T12:02:43.521Z,101904.03
2023-05-12T12:05:59.034Z,101902.28
2023-05-12T12:09:01.129Z,101905.00
2023-05-12T12:12:05.356Z,101906.69
2023-05-12T12:15:08.528Z,101894.09
2023-05-12T12:18:10.608Z,101884.16
2023-05-12T12:21:12.638Z,101903.50
2023-05-12T12:24:14.737Z,101900.00
2023-05-12T12:27:16.787Z,101893.06
2023-05-12T12:30:19.237Z,101886.00
2023-05-12T12:33:21.379Z,101899.72
2023-05-12T12:36:23.503Z,101891.53
2023-05-12T12:39:25.575Z,101886.63
2023-05-12T12:42:27.594Z,101880.91
2023-05-12T12:45:30.088Z,101886.78
2023-05-12T12:48:32.506Z,101879.34
2023-05-12T12:51:45.144Z,101878.91
2023-05-12T12:54:47.748Z,101872.53
2023-05-12T12:57:50.214Z,101878.41
2023-05-12T13:00:52.682Z,101870.13
2023-05-12T13:03:57.254Z,101870.28
2023-05-12T13:06:59.326Z,101877.53
2023-05-12T13:10:01.453Z,101879.25
2023-05-12T13:13:03.611Z,101880.56
2023-05-12T13:16:05.966Z,101871.25
2023-05-12T13:19:10.160Z,101876.69
2023-05-12T13:22:12.258Z,101877.19
2023-05-12T13:25:14.284Z,101871.97
2023-05-12T13:28:16.318Z,101875.44
2023-05-12T13:31:27.069Z,101860.94
2023-05-12T13:34:29.496Z,101869.84
2023-05-12T13:37:34.156Z,101859.16
2023-05-12T13:40:37.353Z,101864.94
2023-05-12T13:43:40.512Z,101865.06
2023-05-12T13:46:42.808Z,101861.59
2023-05-12T13:49:45.384Z,101861.97
2023-05-12T13:52:47.843Z,101863.41
2023-05-12T13:55:55.498Z,101860.88
2023-05-12T13:58:58.658Z,101836.34
2023-05-12T14:02:01.337Z,101863.25
2023-05-12T14:05:04.160Z,101862.41
2023-05-12T14:08:06.515Z,101858.16
2023-05-12T14:11:34.032Z,101855.41
2023-05-12T14:14:34.478Z,101857.34
2023-05-12T14:17:36.911Z,101863.56
2023-05-12T14:20:40.261Z,101856.59
2023-05-12T14:23:45.480Z,101859.34
2023-05-12T14:26:47.741Z,101852.19
2023-05-12T14:29:51.393Z,101853.41
2023-05-12T14:32:53.675Z,101857.38
2023-05-12T14:36:06.436Z,101850.41
2023-05-12T14:39:14.467Z,101846.72
2023-05-12T14:42:18.052Z,101844.41
2023-05-12T14:45:20.279Z,101849.75
2023-05-12T14:48:23.629Z,101844.47
2023-05-12T14:51:26.036Z,101855.38
2023-05-12T14:54:28.393Z,101854.00
2023-05-12T14:57:33.283Z,101856.66
2023-05-12T15:01:06.285Z,101851.69
2023-05-12T15:04:12.519Z,101848.13
2023-05-12T15:07:44.673Z,101859.25
2023-05-12T15:10:50.446Z,101862.25
2023-05-12T15:13:55.468Z,101846.00
2023-05-12T15:16:57.675Z,101835.75
2023-05-12T15:20:08.265Z,101841.97
2023-05-12T15:23:19.838Z,101848.91
2023-05-12T15:26:32.779Z,101844.75
2023-05-12T15:29:41.061Z,101847.03
2023-05-12T15:32:43.280Z,101847.38
2023-05-12T15:35:45.509Z,101845.72
2023-05-12T15:38:47.579Z,101842.03
2023-05-12T15:41:50.636Z,101842.41
2023-05-12T15:44:55.021Z,101836.69
2023-05-12T15:48:00.847Z,101833.28
2023-05-12T15:51:07.929Z,101835.75
2023-05-12T15:54:13.020Z,101836.19
2023-05-12T15:57:16.174Z,101836.31
2023-05-12T16:00:18.703Z,101832.06
2023-05-12T16:09:01.464Z,101834.31
2023-05-12T16:12:05.927Z,101834.69
2023-05-12T16:23:06.770Z,101829.28
2023-05-12T16:26:13.176Z,101829.28
2023-05-12T16:29:15.636Z,101845.41
2023-05-12T16:37:26.709Z,101832.78
2023-05-12T16:41:14.552Z,101819.22
2023-05-12T16:44:33.586Z,101831.44
2023-05-12T16:48:51.521Z,101830.97
2023-05-12T16:51:57.524Z,101833.03
2023-05-12T16:55:03.028Z,101842.88
2023-05-12T16:58:05.541Z,101847.47
2023-05-12T17:01:08.601Z,101831.22
2023-05-12T17:04:12.860Z,101838.00
2023-05-12T17:07:23.986Z,101832.22
2023-05-12T17:10:34.492Z,101853.03
2023-05-12T17:13:38.311Z,101848.97
2023-05-12T17:16:40.786Z,101847.66
2023-05-12T17:19:45.119Z,101855.81
2023-05-12T17:22:50.481Z,101854.59
2023-05-12T17:25:53.600Z,101857.97
2023-05-12T17:28:57.353Z,101864.63
2023-05-12T17:32:02.542Z,101840.66
2023-05-12T17:35:05.223Z,101847.84
2023-05-12T17:38:07.972Z,101856.16
2023-05-12T17:41:10.523Z,101866.84
2023-05-12T17:44:15.363Z,101860.81
2023-05-12T17:47:17.857Z,101858.09
2023-05-12T17:50:20.001Z,101859.25
2023-05-12T17:53:22.499Z,101864.81
2023-05-12T17:56:24.871Z,101863.00
2023-05-12T17:59:28.183Z,101866.50
2023-05-12T18:02:31.790Z,101867.34
2023-05-12T18:05:36.691Z,101880.66
2023-05-12T18:08:39.271Z,101887.34
2023-05-12T18:11:41.826Z,101883.66
2023-05-12T18:14:44.410Z,101891.72
2023-05-12T18:17:46.694Z,101887.50
2023-05-12T18:20:48.916Z,101897.16
2023-05-12T18:23:51.752Z,101892.25
2023-05-12T18:26:53.857Z,101874.88
2023-05-12T18:29:56.149Z,101891.06
2023-05-12T18:32:58.760Z,101888.69
2023-05-12T18:36:01.201Z,101891.78
2023-05-12T18:39:04.394Z,101884.03
2023-05-12T18:42:06.626Z,101900.03
2023-05-12T18:45:09.100Z,101894.41
2023-05-12T18:48:11.486Z,101897.13
2023-05-12T18:51:15.204Z,101883.56
2023-05-12T18:54:17.463Z,101894.97
2023-05-12T18:57:21.183Z,101903.69
2023-05-12T19:00:27.810Z,101893.66
2023-05-12T19:03:31.839Z,101904.69
2023-05-12T19:06:34.615Z,101905.72
2023-05-12T19:09:37.134Z,101909.00
2023-05-12T19:12:51.373Z,101911.88
2023-05-12T19:15:53.599Z,101910.38
2023-05-12T19:18:55.923Z,101909.00
2023-05-12T19:21:57.980Z,101910.22
2023-05-12T19:25:00.892Z,101914.63
2023-05-12T19:28:02.821Z,101914.81
2023-05-12T19:31:04.939Z,101915.66
2023-05-12T19:34:07.956Z,101920.25
2023-05-12T19:37:10.394Z,101919.06
2023-05-12T19:40:12.719Z,101919.06
2023-05-12T19:43:14.952Z,101921.44
2023-05-12T19:46:17.303Z,101913.13
2023-05-12T19:49:19.532Z,101916.88
2023-05-12T19:52:24.677Z,101919.44
2023-05-12T19:55:27.086Z,101911.13
2023-05-12T19:58:29.226Z,101913.34
2023-05-12T20:01:31.438Z,101914.03
2023-05-12T20:04:33.576Z,101889.94
2023-05-12T20:07:35.596Z,101916.91
2023-05-12T20:10:37.644Z,101907.59
2023-05-12T20:13:40.003Z,101914.03
2023-05-12T20:16:42.145Z,101906.72
2023-05-12T20:19:44.256Z,101901.97
2023-05-12T20:22:46.442Z,101905.03
2023-05-12T20:25:48.672Z,101897.72
2023-05-12T20:28:54.112Z,101905.03
2023-05-12T20:31:56.850Z,101898.06
2023-05-12T20:34:58.848Z,101903.34
2023-05-12T20:38:01.228Z,101906.91
2023-05-12T20:41:07.189Z,101894.22
2023-05-12T20:44:09.947Z,101898.28
2023-05-12T20:47:13.106Z,101902.00
2023-05-12T20:50:15.429Z,101900.31
2023-05-12T20:53:17.676Z,101908.81
2023-05-12T20:56:22.850Z,101900.84
2023-05-12T20:59:24.936Z,101903.56
2023-05-12T21:02:28.378Z,101902.88
2023-05-12T21:05:31.066Z,101907.63
2023-05-12T21:08:33.146Z,101909.31
2023-05-12T21:11:35.263Z,101907.13
2023-05-12T21:14:41.871Z,101899.50
2023-05-12T21:17:44.099Z,101896.75
2023-05-12T21:20:46.336Z,101900.69
2023-05-12T21:23:48.509Z,101892.88
2023-05-12T21:26:50.747Z,101909.69
2023-05-12T21:29:52.896Z,101893.88
2023-05-12T21:32:55.009Z,101904.22
2023-05-12T21:35:57.086Z,101898.97
2023-05-12T21:38:59.159Z,101899.16
2023-05-12T21:42:01.279Z,101889.44
2023-05-12T21:45:03.804Z,101895.72
2023-05-12T21:48:06.216Z,101894.91
2023-05-12T21:51:08.347Z,101908.28
2023-05-12T21:54:10.681Z,101909.81
2023-05-12T21:57:15.525Z,101907.25
2023-05-12T22:00:20.344Z,101913.38
2023-05-12T22:03:25.138Z,101913.91
2023-05-12T22:06:27.405Z,101911.19
2023-05-12T22:09:31.191Z,101911.50
2023-05-12T22:12:34.068Z,101912.19
2023-05-12T22:15:36.159Z,101917.44
2023-05-12T22:18:38.406Z,101917.28
2023-05-12T22:21:41.030Z,101907.94
2023-05-12T22:24:43.964Z,101903.88
2023-05-12T22:27:45.953Z,101911.16
2023-05-12T22:30:48.121Z,101913.91
2023-05-12T22:33:51.164Z,101912.69
2023-05-12T22:36:53.327Z,101905.75
2023-05-12T22:39:55.372Z,101915.22
2023-05-12T22:42:57.528Z,101913.41
2023-05-12T22:46:00.059Z,101920.31
2023-05-12T22:49:02.115Z,101918.78
2023-05-12T22:52:05.754Z,101918.59
2023-05-12T22:55:08.115Z,101915.06
2023-05-12T22:58:11.748Z,101910.84
2023-05-12T23:01:13.769Z,101907.25
2023-05-12T23:04:16.072Z,101910.47
2023-05-12T23:07:18.357Z,101914.56
2023-05-12T23:10:20.702Z,101907.44
2023-05-12T23:13:22.925Z,101918.78
2023-05-12T23:16:25.727Z,101910.31
2023-05-12T23:19:28.168Z,101908.97
2023-05-12T23:22:30.255Z,101907.75
2023-05-12T23:25:32.309Z,101900.78
2023-05-12T23:28:34.378Z,101906.22
2023-05-12T23:31:36.410Z,101898.09
2023-05-12T23:34:40.477Z,101898.78
2023-05-12T23:37:42.880Z,101904.53
2023-05-12T23:40:44.970Z,101890.66
2023-05-12T23:43:47.051Z,101898.25
2023-05-12T23:46:49.349Z,101901.31
2023-05-12T23:49:51.545Z,101892.31
2023-05-12T23:52:53.745Z,101899.63
2023-05-12T23:55:55.798Z,101900.97
2023-05-12T23:58:57.714Z,101901.31
